Airfield :
LOGIN :

Register | Disclaimer

   EN    FR    IT 

 










Legend :    VFR   Marginal VFR   IFR   Intensive IFR   Very Intensive IFR
Visi :
Ceiling :
>= 8 km
>= 3000ft
5 to 8 km
1000 to 3000 ft
1500m to 5 km
500 to 1000 ft
800 to 1500m
200 to 500 ft
< 800m
< 200 ft
Symbols :   Thunderstorms  Fog  Heavy snow  Heavy precipitations  Wind > 20 kt
SIGMETs :     Misc.  Thunderstorms  Icing  Turbulence  Mountain Waves  Volcanic Ashes






- Airport Elevation : 1682 ft
- IATA code : VIT


LEVT - Vitoria Gasteiz

CURRENT METAR :
  • 152130Z 18002KT 9999 FEW050 13/05 Q1019

EXPIRED METARs :
  • 152100Z 10003KT 040V200 9999 FEW050 13/05 Q1019
  • 152030Z 00000KT 9999 FEW050 12/04 Q1019
  • 152000Z 34001KT 9999 FEW050 12/04 Q1019
  • 151930Z 24001KT 9999 SCT050 12/04 Q1019
  • 151900Z VRB02KT 9999 SCT050 11/05 Q1019
  • 151830Z 21006KT 9999 SCT050 13/04 Q1019

TAF AMD TAF LEVT
Valid from the 15 at 20:00 until the 16 at 18:00 UTC


152011Z 1520/1618 23009KT 9999 SCT050 TX21/1614Z TN09/1606Z
TEMPO 1603/1618 22015G25KT
PROB40
TEMPO 1612/1615 22020G35KT



MET'MAP, your aeronautical weather chart ! - Copyright ORBIFLY December 2007 - Disclaimer

ORBIFLY MET'MAP TEAM :

Programming & Development : Alexandra Zaïnal
Concept & Development : Baudouin d'Aumeries
Co-Development & Prog : Marc-Olivier Méhu
Technical & hardware support : Manuel Goepfert

Contact : metmap@orbifly.com




SOURCES & CREDITS :

   NOAA